Time;durP1;ratioP1;P1;durP2;ratioP2;P2;SDS_P1;SDS_P2;PMS_P1;PMS_P2;Temp;Humidity;BMP_temperature;BMP_pressure;BME280_temperature;BME280_humidity;BME280_pressure;Samples;Min_cycle;Max_cycle;Signal;HPM_P1;HPM_P2
2022/05/01 00:00:43;;;;;;;5.93;5.32;;;;;;;11.82;59.94;100747.53;10219483;28;20082;-61
2022/05/01 00:05:45;;;;;;;6.00;5.40;;;;;;;11.81;60.49;100737.84;10224214;28;20564;-61
2022/05/01 00:10:46;;;;;;;5.65;5.00;;;;;;;11.56;61.04;100722.91;10217512;28;20475;-61
2022/05/01 00:16:08;;;;;;;5.57;5.07;;;;;;;11.76;61.01;100745.34;10220228;28;20055;-59
2022/05/01 00:21:10;;;;;;;6.22;5.55;;;;;;;11.78;60.90;100746.06;10215549;28;20396;-62
2022/05/01 00:26:12;;;;;;;6.88;5.13;;;;;;;11.85;60.65;100743.78;10226479;28;20864;-61
2022/05/01 00:31:16;;;;;;;6.80;5.40;;;;;;;11.87;61.09;100739.16;10212568;28;20162;-59
2022/05/01 00:36:26;;;;;;;6.33;5.47;;;;;;;11.75;60.91;100729.44;10218387;28;20121;-61
2022/05/01 00:41:30;;;;;;;6.55;5.38;;;;;;;11.87;60.47;100738.31;10215301;28;20134;-61
2022/05/01 00:46:33;;;;;;;6.32;5.72;;;;;;;11.75;61.09;100737.47;10213180;28;20146;-61
2022/05/01 00:51:41;;;;;;;6.13;5.53;;;;;;;11.80;61.06;100737.94;10216671;28;20058;-60
2022/05/01 00:56:45;;;;;;;7.32;5.85;;;;;;;11.72;60.88;100719.88;10221754;28;20054;-61
2022/05/01 01:01:49;;;;;;;7.43;6.07;;;;;;;11.76;61.18;100733.84;10216892;28;20209;-61
2022/05/01 01:06:51;;;;;;;6.30;5.80;;;;;;;11.73;61.08;100720.75;10215762;28;20147;-60
2022/05/01 01:12:53;;;;;;;6.40;5.75;;;;;;;11.59;61.09;100704.00;10221345;28;20066;-60
2022/05/01 01:17:14;;;;;;;6.50;5.90;;;;;;;11.68;61.12;100719.28;10213672;28;20142;-60
2022/05/01 01:22:15;;;;;;;8.13;5.75;;;;;;;11.65;61.00;100708.84;10216129;28;20055;-61
2022/05/01 01:27:17;;;;;;;7.13;6.18;;;;;;;11.77;60.73;100722.16;10216124;28;20723;-60
2022/05/01 01:32:19;;;;;;;6.35;5.68;;;;;;;11.73;61.30;100715.41;10218159;28;20126;-66
2022/05/01 01:37:23;;;;;;;7.97;5.97;;;;;;;11.75;60.74;100710.78;10214604;28;20164;-60
2022/05/01 01:42:29;;;;;;;7.97;6.00;;;;;;;11.54;60.55;100695.47;10209453;28;20146;-62
2022/05/01 01:47:30;;;;;;;7.65;5.70;;;;;;;11.75;60.67;100722.28;10215400;28;20078;-59
2022/05/01 01:52:33;;;;;;;6.45;4.88;;;;;;;11.70;60.50;100721.81;10210452;28;20739;-63
2022/05/01 01:57:35;;;;;;;7.63;5.43;;;;;;;11.48;60.64;100701.28;10213511;28;20066;-61
2022/05/01 02:02:36;;;;;;;6.75;5.70;;;;;;;11.68;60.49;100719.28;10218387;28;20047;-61
2022/05/01 02:07:39;;;;;;;7.00;5.80;;;;;;;11.66;60.40;100710.56;10221354;28;20058;-60
2022/05/01 02:12:41;;;;;;;6.25;5.65;;;;;;;11.67;60.86;100717.56;10221520;28;20086;-59
2022/05/01 02:17:42;;;;;;;7.05;5.93;;;;;;;11.55;60.90;100697.19;10209405;28;20128;-60
2022/05/01 02:22:44;;;;;;;7.60;5.93;;;;;;;11.70;60.64;100712.97;10212479;28;20125;-61
2022/05/01 02:27:46;;;;;;;7.25;6.03;;;;;;;11.71;60.73;100704.00;10216082;28;20560;-62
2022/05/01 02:32:47;;;;;;;7.53;5.45;;;;;;;11.71;61.05;100712.84;10216396;28;20682;-62
2022/05/01 02:37:48;;;;;;;5.53;5.03;;;;;;;11.69;60.96;100698.78;10210690;28;20121;-62
2022/05/01 02:42:50;;;;;;;6.82;5.45;;;;;;;11.68;60.54;100708.59;10211618;28;20058;-61
2022/05/01 02:47:52;;;;;;;5.70;5.07;;;;;;;11.70;60.86;100704.97;10214145;28;20141;-61
2022/05/01 02:52:54;;;;;;;6.93;5.93;;;;;;;11.61;60.52;100686.03;10206017;28;20801;-61
2022/05/01 02:57:55;;;;;;;7.22;5.55;;;;;;;11.48;61.58;100706.63;10213333;28;20078;-62
2022/05/01 03:02:56;;;;;;;6.57;5.70;;;;;;;11.46;60.73;100696.09;10208105;28;20130;-61
2022/05/01 03:07:58;;;;;;;7.25;5.80;;;;;;;11.14;61.66;100695.91;10213194;28;20062;-62
2022/05/01 03:12:58;;;;;;;6.88;5.88;;;;;;;11.17;62.13;100698.31;10212754;28;20047;-61
2022/05/01 03:23:20;;;;;;;8.98;5.63;;;;;;;11.44;61.13;100678.50;10214230;28;20062;-61
2022/05/01 03:28:21;;;;;;;7.30;6.60;;;;;;;11.47;61.00;100678.28;10216789;28;20100;-61
2022/05/01 03:33:23;;;;;;;6.40;5.28;;;;;;;11.46;60.99;100685.41;10221836;28;20132;-62
2022/05/01 03:38:25;;;;;;;6.97;6.05;;;;;;;11.47;61.12;100680.97;10222271;28;20058;-61
2022/05/01 03:43:26;;;;;;;6.75;6.15;;;;;;;11.51;61.37;100679.72;10224124;28;20137;-61
2022/05/01 03:48:28;;;;;;;7.07;6.00;;;;;;;11.51;61.35;100682.38;10228687;28;20109;-62
2022/05/01 03:53:29;;;;;;;6.90;6.05;;;;;;;11.34;62.11;100674.88;10217919;28;20600;-61
2022/05/01 03:58:31;;;;;;;6.40;5.90;;;;;;;11.42;61.40;100675.94;10224051;28;20118;-62
2022/05/01 04:03:33;;;;;;;6.25;5.65;;;;;;;11.47;62.38;100675.63;10218702;28;20130;-61
2022/05/01 04:08:35;;;;;;;8.55;6.32;;;;;;;11.47;62.26;100672.97;10220040;28;20055;-61
2022/05/01 04:13:36;;;;;;;6.85;6.10;;;;;;;11.53;62.20;100683.13;10222295;28;20067;-61
2022/05/01 04:18:38;;;;;;;6.93;6.30;;;;;;;11.49;62.21;100681.66;10221264;28;20505;-61
2022/05/01 04:23:40;;;;;;;9.05;6.93;;;;;;;11.51;62.47;100682.38;10222563;28;20051;-60
2022/05/01 04:29:36;;;;;;;7.57;6.20;;;;;;;11.46;62.25;100663.25;10212231;28;20146;-60
2022/05/01 04:34:05;;;;;;;7.93;6.73;;;;;;;11.26;62.83;100644.31;10208007;28;20124;-61
2022/05/01 04:39:07;;;;;;;7.30;5.88;;;;;;;11.43;62.88;100671.50;10213921;28;20205;-61
2022/05/01 04:44:08;;;;;;;7.28;6.60;;;;;;;11.52;62.36;100684.09;10213714;28;20055;-62
2022/05/01 04:49:10;;;;;;;6.97;6.25;;;;;;;11.53;62.58;100692.94;10212740;28;20210;-60
2022/05/01 04:54:11;;;;;;;7.47;6.35;;;;;;;11.56;62.31;100693.56;10210868;28;20146;-60
2022/05/01 04:59:13;;;;;;;7.20;5.95;;;;;;;11.61;62.28;100690.53;10213631;28;20678;-61
2022/05/01 05:04:14;;;;;;;6.13;5.57;;;;;;;11.61;62.19;100686.03;10214232;28;20062;-61
2022/05/01 05:14:37;;;;;;;6.75;6.05;;;;;;;11.58;62.58;100690.78;10215745;28;20694;-61
2022/05/01 05:19:39;;;;;;;7.43;6.35;;;;;;;11.59;62.48;100680.00;10212601;28;20133;-61
2022/05/01 05:24:41;;;;;;;7.25;6.55;;;;;;;11.69;61.42;100698.78;10255153;23;20497;-62
2022/05/01 05:29:42;;;;;;;7.32;6.53;;;;;;;11.60;62.02;100694.16;10253357;28;20129;-62
2022/05/01 05:34:44;;;;;;;6.82;5.95;;;;;;;11.61;61.97;100679.88;10234984;28;20055;-62
2022/05/01 05:39:46;;;;;;;6.15;5.55;;;;;;;11.77;61.87;100695.50;10225905;28;20166;-61
2022/05/01 05:44:48;;;;;;;7.20;6.45;;;;;;;11.79;61.68;100688.25;10239153;28;20057;-59
2022/05/01 05:49:50;;;;;;;5.75;5.25;;;;;;;11.92;61.75;100707.66;10232883;28;20142;-62
2022/05/01 05:54:55;;;;;;;7.03;5.18;;;;;;;11.94;61.54;100711.06;10200451;28;20186;-61
2022/05/01 05:59:56;;;;;;;6.57;5.82;;;;;;;12.00;61.39;100710.59;10229255;28;20108;-61
2022/05/01 06:04:59;;;;;;;8.57;5.50;;;;;;;11.95;61.46;100702.09;10230172;28;20175;-59
2022/05/01 06:10:00;;;;;;;6.65;5.75;;;;;;;11.99;61.87;100722.25;10234746;28;20105;-61
2022/05/01 06:15:03;;;;;;;8.10;6.78;;;;;;;12.05;61.58;100723.56;10233725;28;20882;-62
2022/05/01 06:20:05;;;;;;;6.38;5.55;;;;;;;11.97;61.70;100705.50;10235307;28;20248;-60
2022/05/01 06:25:07;;;;;;;6.18;5.57;;;;;;;12.12;61.45;100724.78;10231964;28;20101;-60
2022/05/01 06:30:12;;;;;;;6.40;5.80;;;;;;;12.10;61.99;100723.19;10231269;28;20057;-60
2022/05/01 06:35:15;;;;;;;6.50;5.82;;;;;;;12.24;61.46;100730.94;10229609;28;20061;-60
2022/05/01 06:40:16;;;;;;;6.32;5.72;;;;;;;12.37;61.21;100710.31;10216793;28;20066;-63
2022/05/01 06:45:22;;;;;;;6.28;5.18;;;;;;;12.43;61.01;100725.00;10224255;28;20455;-61
2022/05/01 06:50:23;;;;;;;6.50;5.80;;;;;;;12.54;61.03;100721.44;10230462;28;20050;-62
2022/05/01 06:55:25;;;;;;;6.80;5.68;;;;;;;12.77;60.83;100716.03;10225348;28;20054;-62
2022/05/01 07:00:27;;;;;;;7.75;6.93;;;;;;;12.99;60.22;100715.13;10218088;28;22259;-61
2022/05/01 07:05:28;;;;;;;6.45;5.20;;;;;;;13.19;59.56;100721.47;10227296;28;20149;-62
2022/05/01 07:10:30;;;;;;;8.43;6.47;;;;;;;13.34;58.78;100712.16;10247113;28;20185;-61
2022/05/01 07:15:31;;;;;;;6.45;5.57;;;;;;;13.66;58.37;100724.63;10249545;28;20124;-60
2022/05/01 07:20:35;;;;;;;6.25;5.68;;;;;;;13.87;57.71;100731.75;10230991;28;20050;-60
2022/05/01 07:25:36;;;;;;;5.90;5.30;;;;;;;13.98;56.97;100718.31;10231136;28;20503;-61
2022/05/01 07:30:38;;;;;;;6.82;5.32;;;;;;;14.01;57.68;100701.97;10228978;28;20049;-61
2022/05/01 07:35:39;;;;;;;7.80;5.88;;;;;;;14.52;56.75;100721.56;10226792;28;20054;-60
2022/05/01 07:40:41;;;;;;;5.90;5.25;;;;;;;14.71;55.89;100715.41;10228872;28;20144;-59
2022/05/01 07:45:43;;;;;;;8.43;5.90;;;;;;;14.63;55.60;100707.25;10230568;28;20093;-61
2022/05/01 07:50:47;;;;;;;5.45;4.95;;;;;;;14.52;55.97;100701.97;10230263;28;20195;-60
2022/05/01 07:55:49;;;;;;;5.28;4.75;;;;;;;14.64;55.69;100717.81;10228126;28;20679;-61
2022/05/01 08:00:51;;;;;;;6.03;5.53;;;;;;;14.75;54.94;100721.34;10230635;28;20134;-63
2022/05/01 08:05:53;;;;;;;6.38;5.20;;;;;;;14.96;55.36;100719.38;10229208;28;20058;-59
2022/05/01 08:10:54;;;;;;;7.22;5.68;;;;;;;15.12;54.01;100713.47;10227051;28;20144;-60
2022/05/01 08:15:56;;;;;;;7.95;5.93;;;;;;;15.22;54.25;100712.63;10231371;28;21056;-60
2022/05/01 08:21:10;;;;;;;5.55;5.03;;;;;;;15.42;54.10;100708.06;10225925;28;20116;-62
2022/05/01 08:26:11;;;;;;;7.33;5.60;;;;;;;15.65;53.60;100716.63;10234354;28;20046;-60
2022/05/01 08:31:13;;;;;;;7.05;5.40;;;;;;;15.85;52.63;100714.75;10232767;28;20280;-63
2022/05/01 08:36:15;;;;;;;8.02;6.68;;;;;;;15.90;52.45;100707.97;10235252;28;20065;-60
2022/05/01 08:41:17;;;;;;;9.23;6.22;;;;;;;15.95;52.18;100704.84;10232486;28;20248;-61
2022/05/01 08:46:36;;;;;;;6.18;5.25;;;;;;;15.90;52.28;100702.59;10226959;28;20068;-61
2022/05/01 08:51:42;;;;;;;7.05;5.43;;;;;;;16.24;52.17;100693.09;10236999;28;20050;-60
2022/05/01 08:56:45;;;;;;;6.18;5.57;;;;;;;16.52;50.57;100703.84;10220517;28;20241;-64
2022/05/01 09:01:47;;;;;;;8.67;6.27;;;;;;;16.86;49.42;100701.34;10180177;28;20623;-60
2022/05/01 09:06:48;;;;;;;7.05;5.70;;;;;;;17.00;49.03;100693.75;10193081;28;20477;-61
2022/05/01 09:17:18;;;;;;;6.82;5.72;;;;;;;17.55;47.33;100704.28;10234244;28;20137;-60
2022/05/01 09:22:21;;;;;;;7.53;5.88;;;;;;;17.50;47.43;100695.81;10231890;28;20073;-61
2022/05/01 09:27:29;;;;;;;6.35;5.35;;;;;;;17.49;47.59;100697.66;10243353;28;20046;-60
2022/05/01 09:32:39;;;;;;;6.25;5.60;;;;;;;17.69;48.23;100694.75;10221638;28;20057;-61
2022/05/01 09:37:41;;;;;;;12.45;6.95;;;;;;;18.19;46.37;100701.25;10227504;28;21954;-62
2022/05/01 09:42:43;;;;;;;8.00;5.70;;;;;;;18.52;46.56;100695.97;10228363;28;22132;-61
2022/05/01 09:47:45;;;;;;;7.18;5.65;;;;;;;19.11;45.10;100695.94;10223136;28;20204;-62
2022/05/01 09:53:01;;;;;;;5.80;5.10;;;;;;;19.74;43.09;100696.16;10227397;28;20054;-61
2022/05/01 09:58:07;;;;;;;9.85;6.03;;;;;;;20.46;40.65;100695.22;10221029;28;20716;-60
2022/05/01 10:03:29;;;;;;;8.32;6.72;;;;;;;20.41;41.32;100687.66;10225082;28;20329;-61
2022/05/01 10:08:31;;;;;;;7.93;5.78;;;;;;;20.63;41.53;100690.59;10215234;28;20762;-60
2022/05/01 10:13:34;;;;;;;7.10;5.85;;;;;;;21.00;39.96;100692.53;10226262;28;20054;-60
2022/05/01 10:18:38;;;;;;;8.00;5.88;;;;;;;21.50;39.05;100692.97;10227123;28;20062;-59
2022/05/01 10:24:01;;;;;;;7.05;6.35;;;;;;;22.35;36.87;100679.97;10217570;28;21519;-59
2022/05/01 10:29:19;;;;;;;7.85;6.93;;;;;;;23.01;36.04;100676.25;10219594;28;20934;-61
2022/05/01 10:34:43;;;;;;;6.65;6.05;;;;;;;23.07;35.83;100682.78;10216948;28;21237;-59
2022/05/01 10:39:50;;;;;;;8.98;6.15;;;;;;;21.67;38.51;100669.25;10215245;28;20204;-59
2022/05/01 10:44:52;;;;;;;7.03;5.73;;;;;;;21.96;38.38;100664.00;10219845;28;20103;-59
2022/05/01 10:50:05;;;;;;;7.32;5.88;;;;;;;22.17;36.93;100660.53;10221586;28;20134;-61
2022/05/01 10:55:08;;;;;;;7.05;5.80;;;;;;;21.12;39.85;100656.91;10220765;28;20062;-60
2022/05/01 11:00:11;;;;;;;8.68;6.18;;;;;;;21.10;39.62;100662.50;10210719;28;20155;-60
2022/05/01 11:05:43;;;;;;;7.25;6.57;;;;;;;21.44;38.98;100652.19;10216385;28;20069;-61
2022/05/01 11:10:47;;;;;;;6.00;5.07;;;;;;;21.98;38.86;100648.38;10225294;28;20113;-60
2022/05/01 11:16:10;;;;;;;7.47;6.70;;;;;;;22.23;37.54;100638.94;10222179;28;20054;-60
2022/05/01 11:21:23;;;;;;;8.93;6.25;;;;;;;22.17;37.07;100645.13;10223484;28;20043;-61
2022/05/01 11:26:25;;;;;;;8.15;5.65;;;;;;;21.97;38.96;100644.03;10223216;28;20484;-60
2022/05/01 11:31:38;;;;;;;8.32;6.55;;;;;;;22.64;37.18;100637.50;10220955;28;20079;-60
2022/05/01 11:37:03;;;;;;;8.82;6.03;;;;;;;;;;10223415;28;20047;-61
2022/05/01 11:42:29;;;;;;;9.77;6.68;;;;;;;22.44;36.88;100625.59;10227127;28;20054;-61
2022/05/01 11:47:32;;;;;;;6.57;6.07;;;;;;;22.52;37.21;100626.34;10224820;28;20098;-60
2022/05/01 11:52:37;;;;;;;5.85;5.20;;;;;;;22.85;37.31;100603.22;10108948;28;20141;-60
2022/05/01 12:03:01;;;;;;;9.02;6.38;;;;;;;22.34;38.27;100607.78;10234507;28;20224;-61
2022/05/01 12:08:03;;;;;;;8.80;6.97;;;;;;;22.56;37.46;100595.06;10241443;28;20220;-61
2022/05/01 12:13:21;;;;;;;7.70;6.53;;;;;;;22.62;37.30;100587.19;10246926;28;20115;-62
2022/05/01 12:18:23;;;;;;;7.53;5.53;;;;;;;23.21;37.28;100592.28;10244591;28;20157;-61
2022/05/01 12:23:25;;;;;;;10.45;6.47;;;;;;;22.78;36.61;100585.03;10241693;28;20070;-61
2022/05/01 12:28:27;;;;;;;7.97;6.32;;;;;;;23.14;35.84;100577.81;10239060;28;20193;-61
2022/05/01 12:33:29;;;;;;;8.75;6.53;;;;;;;23.63;34.37;100584.19;10239937;28;20116;-61
2022/05/01 12:38:31;;;;;;;5.45;4.93;;;;;;;23.82;35.41;100568.97;10240143;28;20116;-60
2022/05/01 12:43:50;;;;;;;8.00;6.88;;;;;;;23.77;34.96;100574.19;10238240;28;21121;-61
2022/05/01 12:48:52;;;;;;;8.13;7.30;;;;;;;24.13;33.45;100554.06;10222077;28;20046;-60
2022/05/01 12:54:08;;;;;;;6.83;6.13;;;;;;;24.28;33.90;100560.16;10219747;28;20046;-59
2022/05/01 12:59:27;;;;;;;6.38;5.60;;;;;;;23.86;34.04;100555.88;10215047;28;20141;-59
2022/05/01 13:04:29;;;;;;;6.95;6.25;;;;;;;22.97;36.14;100546.53;10219056;28;20047;-59
2022/05/01 13:09:48;;;;;;;6.65;6.05;;;;;;;22.91;36.69;100553.63;10220538;28;20046;-59
2022/05/01 13:14:58;;;;;;;8.02;7.22;;;;;;;22.12;37.52;100538.28;10218203;28;20042;-60
2022/05/01 13:19:59;;;;;;;7.68;6.88;;;;;;;21.96;38.01;100533.94;10216828;28;20054;-60
2022/05/01 13:25:01;;;;;;;7.82;7.03;;;;;;;22.34;37.31;100525.56;10208657;28;20054;-60
2022/05/01 13:30:03;;;;;;;6.95;6.35;;;;;;;22.68;36.95;100515.84;10220968;28;20200;-60
2022/05/01 13:35:04;;;;;;;6.95;6.35;;;;;;;22.93;36.49;100525.22;10218399;28;21032;-61
2022/05/01 13:45:30;;;;;;;6.70;5.95;;;;;;;22.68;36.01;100518.56;10214353;28;20412;-61
2022/05/01 13:50:32;;;;;;;7.32;6.38;;;;;;;22.63;36.29;100512.91;10219829;28;20137;-61
2022/05/01 13:55:33;;;;;;;6.30;5.60;;;;;;;22.45;36.70;100497.94;10216214;28;20078;-61
2022/05/01 14:00:36;;;;;;;7.18;6.35;;;;;;;22.14;36.93;100498.25;10206498;28;20668;-61
2022/05/01 14:05:38;;;;;;;7.15;6.50;;;;;;;21.95;38.06;100488.88;10219415;28;20089;-60
2022/05/01 14:10:40;;;;;;;6.28;5.68;;;;;;;22.04;37.78;100485.03;10220621;28;20148;-61
2022/05/01 14:15:42;;;;;;;5.53;4.93;;;;;;;22.15;37.86;100478.25;10218055;28;20115;-60
2022/05/01 14:20:45;;;;;;;7.57;6.03;;;;;;;21.59;37.56;100473.47;10216035;28;20058;-60
2022/05/01 14:25:46;;;;;;;6.53;5.97;;;;;;;21.17;38.63;100482.13;10217989;28;20136;-60
2022/05/01 14:30:55;;;;;;;7.13;6.15;;;;;;;20.69;39.73;100464.53;10213140;28;20165;-61
2022/05/01 14:35:58;;;;;;;7.63;5.43;;;;;;;20.47;40.29;100464.41;10212709;28;20050;-60
2022/05/01 14:41:03;;;;;;;;;;;;;;;20.37;41.40;100472.78;10222791;28;20137;-59
2022/05/01 14:46:08;;;;;;;6.55;5.95;;;;;;;20.30;41.31;100469.94;10221294;28;19957;-64
2022/05/01 14:51:10;;;;;;;6.55;5.95;;;;;;;20.14;41.38;100460.09;10222857;28;20189;-60
2022/05/01 14:56:16;;;;;;;7.05;6.35;;;;;;;19.96;42.13;100463.09;10208610;28;22003;-61
2022/05/01 15:06:43;;;;;;;7.20;6.50;;;;;;;19.75;42.44;100446.69;10220382;28;20046;-60
2022/05/01 15:11:45;;;;;;;7.60;6.82;;;;;;;19.82;42.74;100457.66;10223838;28;20062;-59
2022/05/01 15:16:57;;;;;;;7.18;6.45;;;;;;;19.73;42.58;100462.25;10212578;28;20144;-59
2022/05/01 15:22:21;;;;;;;7.30;5.60;;;;;;;19.72;43.49;100458.69;10219009;28;20046;-59
2022/05/01 15:28:00;;;;;;;8.47;7.07;;;;;;;19.69;42.75;100458.22;10221391;28;20057;-60
2022/05/01 15:38:48;;;;;;;6.88;5.68;;;;;;;19.55;43.15;100443.63;10150684;28;20824;-60
2022/05/01 15:43:49;;;;;;;7.15;6.45;;;;;;;19.31;43.39;100442.72;10209420;28;20085;-59
2022/05/01 15:54:18;;;;;;;6.20;5.60;;;;;;;19.21;43.70;100447.50;10223886;28;22387;-61
2022/05/01 15:59:21;;;;;;;7.70;6.55;;;;;;;19.23;43.43;100440.03;10233397;28;20184;-59
2022/05/01 16:04:25;;;;;;;7.72;6.93;;;;;;;18.77;43.87;100437.16;10229940;28;20065;-61
2022/05/01 16:09:53;;;;;;;6.72;6.03;;;;;;;18.76;45.23;100443.56;10232163;28;20050;-61
2022/05/01 16:15:06;;;;;;;7.97;5.53;;;;;;;18.89;45.45;100439.34;10234611;28;20046;-59
2022/05/01 16:20:10;;;;;;;22.67;16.65;;;;;;;18.97;45.40;100438.47;10230596;28;20097;-61
2022/05/01 16:25:11;;;;;;;8.35;6.68;;;;;;;18.69;45.87;100444.25;10175078;28;20598;-60
2022/05/01 16:30:15;;;;;;;14.30;9.60;;;;;;;18.57;46.78;100439.38;10221424;28;20634;-61
2022/05/01 16:35:19;;;;;;;7.10;6.40;;;;;;;18.25;46.69;100441.94;10236850;28;20073;-60
2022/05/01 16:40:23;;;;;;;19.00;12.18;;;;;;;18.40;47.34;100438.56;10235850;28;20125;-60
2022/05/01 16:45:28;;;;;;;12.90;9.38;;;;;;;18.34;46.75;100434.69;10233645;28;20057;-60
2022/05/01 16:50:31;;;;;;;15.70;11.50;;;;;;;18.55;46.46;100434.16;10235544;28;20062;-61
2022/05/01 16:55:33;;;;;;;15.68;11.57;;;;;;;18.45;47.05;100437.06;10232290;28;20141;-61
2022/05/01 17:00:35;;;;;;;10.77;9.05;;;;;;;18.37;47.17;100426.28;10232524;28;20480;-62
2022/05/01 17:05:47;;;;;;;10.20;8.57;;;;;;;18.24;47.89;100423.25;10232422;28;20052;-61
2022/05/01 17:11:21;;;;;;;6.95;6.10;;;;;;;18.16;47.72;100424.09;10233327;28;20205;-60
2022/05/01 17:16:46;;;;;;;6.75;5.00;;;;;;;18.08;48.24;100430.34;10225183;28;20046;-61
2022/05/01 17:21:50;;;;;;;;;;;;;;;18.15;48.33;100425.09;10231714;28;20150;-59
2022/05/01 17:26:53;;;;;;;6.00;5.40;;;;;;;18.17;48.23;100423.09;10304566;23;20856;-62
2022/05/01 17:31:57;;;;;;;6.07;5.07;;;;;;;17.95;48.56;100430.81;10309614;28;20063;-62
2022/05/01 17:36:59;;;;;;;5.53;5.00;;;;;;;17.87;49.09;100420.03;10361948;28;20811;-62
2022/05/01 17:42:04;;;;;;;6.88;5.38;;;;;;;17.71;49.80;100422.72;10350506;28;20105;-62
2022/05/01 17:47:07;;;;;;;5.45;5.00;;;;;;;17.73;50.59;100442.22;10345924;28;20155;-61
2022/05/01 17:52:10;;;;;;;6.10;5.60;;;;;;;17.65;50.31;100443.03;10345949;28;20755;-62
2022/05/01 17:57:11;;;;;;;9.65;5.22;;;;;;;17.47;50.76;100432.41;10344681;28;20251;-62
2022/05/01 18:02:40;;;;;;;5.68;4.93;;;;;;;17.27;51.34;100411.16;10352054;28;21694;-62
2022/05/01 18:13:27;;;;;;;5.28;4.80;;;;;;;17.24;52.77;100432.19;10337551;28;20076;-63
2022/05/01 18:19:00;;;;;;;5.97;5.45;;;;;;;17.34;52.30;100454.41;10346521;28;20053;-61
2022/05/01 18:24:08;;;;;;;5.40;4.90;;;;;;;17.11;52.38;100438.00;10346361;28;20150;-61
2022/05/01 18:34:58;;;;;;;5.03;4.53;;;;;;;17.05;52.88;100465.53;10341883;28;20499;-64
2022/05/01 18:40:08;;;;;;;6.40;5.30;;;;;;;16.90;52.82;100470.66;10341952;28;20053;-63
2022/05/01 18:45:12;;;;;;;6.30;4.93;;;;;;;16.71;53.72;100466.31;10343962;28;21473;-63
2022/05/01 18:50:25;;;;;;;5.40;4.70;;;;;;;16.64;53.29;100473.34;10348324;28;20069;-63
2022/05/01 18:55:28;;;;;;;8.30;5.97;;;;;;;16.44;53.76;100468.19;10344089;28;20192;-62
2022/05/01 19:00:30;;;;;;;9.00;6.30;;;;;;;16.30;54.64;100474.09;10356010;28;20052;-65
2022/05/01 19:05:48;;;;;;;6.15;5.55;;;;;;;16.31;54.50;100482.00;10338978;28;20053;-62
2022/05/01 19:10:58;;;;;;;6.47;5.72;;;;;;;16.24;54.23;100484.47;10344293;28;20504;-62
2022/05/01 19:16:15;;;;;;;6.80;6.00;;;;;;;16.02;54.54;100484.94;10341842;28;20049;-63
2022/05/01 19:21:26;;;;;;;6.40;5.55;;;;;;;15.91;55.14;100483.31;10356039;28;20271;-63
2022/05/01 19:26:35;;;;;;;5.85;4.22;;;;;;;15.67;59.61;100482.03;10340797;28;20060;-64
2022/05/01 19:31:50;;;;;;;7.10;5.05;;;;;;;15.97;55.72;100489.91;10354851;28;20053;-64
2022/05/01 19:37:02;;;;;;;6.45;5.65;;;;;;;15.85;54.25;100489.28;10335144;28;20188;-63
2022/05/01 19:42:25;;;;;;;6.18;5.68;;;;;;;15.61;54.89;100495.22;10340988;28;20557;-65
2022/05/01 19:53:13;;;;;;;5.45;4.72;;;;;;;15.40;55.73;100492.78;10341684;28;20456;-63
2022/05/01 19:58:17;;;;;;;6.00;5.47;;;;;;;15.38;55.41;100487.56;10342179;28;20073;-63
2022/05/01 20:03:21;;;;;;;5.82;5.25;;;;;;;15.31;55.55;100498.06;10342944;28;20706;-63
2022/05/01 20:08:26;;;;;;;6.25;5.50;;;;;;;15.29;55.56;100496.50;10339836;28;20049;-62
2022/05/01 20:13:27;;;;;;;7.22;5.20;;;;;;;15.26;55.50;100504.84;10342926;28;20114;-63
2022/05/01 20:18:36;;;;;;;5.57;5.05;;;;;;;15.12;56.09;100500.81;10345109;28;20049;-64
2022/05/01 20:24:04;;;;;;;5.85;4.97;;;;;;;14.93;55.94;100502.56;10359962;28;20203;-63
2022/05/01 20:29:35;;;;;;;5.35;4.85;;;;;;;14.89;56.68;100508.34;10349126;28;20065;-62
2022/05/01 20:34:49;;;;;;;6.13;4.63;;;;;;;14.84;56.50;100511.47;10347606;28;20508;-63
2022/05/01 20:40:06;;;;;;;6.90;4.97;;;;;;;14.75;56.97;100507.00;10347619;28;20049;-64
2022/05/01 20:45:09;;;;;;;7.13;4.60;;;;;;;14.76;56.72;100498.81;10347344;28;20056;-61
2022/05/01 20:50:14;;;;;;;5.00;4.20;;;;;;;14.60;56.68;100490.50;10342742;28;20058;-62
2022/05/01 20:55:18;;;;;;;5.47;4.97;;;;;;;14.67;56.61;100505.03;10344269;28;20458;-62
2022/05/01 21:00:20;;;;;;;8.05;5.30;;;;;;;14.29;57.06;100486.16;10342859;28;20049;-63
2022/05/01 21:05:23;;;;;;;6.43;5.03;;;;;;;14.39;57.44;100496.84;10344826;28;20144;-64
2022/05/01 21:10:48;;;;;;;6.30;5.28;;;;;;;14.30;57.72;100489.69;10365765;28;20053;-64
2022/05/01 21:15:49;;;;;;;5.72;4.28;;;;;;;14.27;57.32;100485.44;10375769;28;20144;-65
2022/05/01 21:20:51;;;;;;;6.95;4.40;;;;;;;14.39;57.12;100502.22;10372827;28;20073;-65
2022/05/01 21:25:52;;;;;;;5.93;5.07;;;;;;;14.30;57.56;100487.00;10372486;28;20554;-66
2022/05/01 21:36:14;;;;;;;7.43;4.85;;;;;;;14.45;56.19;100484.72;10378772;28;20148;-66
2022/05/01 21:41:16;;;;;;;6.57;4.78;;;;;;;14.30;56.97;100477.13;10378340;28;20142;-67
2022/05/01 21:46:17;;;;;;;7.13;4.25;;;;;;;14.34;56.83;100472.34;10369522;28;20128;-66
2022/05/01 21:51:19;;;;;;;5.75;4.30;;;;;;;14.38;56.96;100472.91;10372642;28;20056;-66
2022/05/01 21:56:20;;;;;;;7.47;4.97;;;;;;;14.21;57.34;100474.47;10370357;28;20425;-66
2022/05/01 22:01:22;;;;;;;4.22;3.83;;;;;;;14.24;57.25;100461.63;10370088;28;20606;-65
2022/05/01 22:06:24;;;;;;;6.50;4.63;;;;;;;14.27;57.34;100471.22;10371362;28;20052;-69
2022/05/01 22:11:26;;;;;;;6.72;5.07;;;;;;;14.20;57.42;100459.38;10367645;28;20465;-67
2022/05/01 22:16:28;;;;;;;5.05;4.38;;;;;;;14.19;57.04;100476.47;10384637;28;20051;-66
2022/05/01 22:21:29;;;;;;;6.47;4.72;;;;;;;14.05;57.91;100472.34;10371041;28;20042;-65
2022/05/01 22:26:31;;;;;;;7.32;5.80;;;;;;;14.12;57.52;100468.97;10371697;28;20061;-64
2022/05/01 22:31:32;;;;;;;6.00;4.93;;;;;;;14.09;57.14;100469.25;10372141;28;20045;-65
2022/05/01 22:41:54;;;;;;;7.35;5.05;;;;;;;13.87;57.78;100458.81;10375955;28;20430;-66
2022/05/01 22:46:55;;;;;;;11.65;5.80;;;;;;;13.93;57.97;100475.19;10381340;28;20079;-66
2022/05/01 22:51:57;;;;;;;8.98;5.07;;;;;;;13.79;58.39;100441.63;10370104;28;20048;-66
2022/05/01 22:56:58;;;;;;;4.88;4.47;;;;;;;13.81;58.32;100437.97;10370226;28;20144;-66
2022/05/01 23:01:59;;;;;;;6.63;4.68;;;;;;;13.88;58.66;100455.16;10368812;28;20055;-67
2022/05/01 23:07:01;;;;;;;6.75;4.72;;;;;;;13.85;58.30;100444.75;10371351;28;20052;-66
2022/05/01 23:12:06;;;;;;;5.72;4.50;;;;;;;13.84;58.27;100451.94;10369521;28;20168;-65
2022/05/01 23:17:08;;;;;;;;;;;;;;;13.75;58.86;100444.72;10363611;28;20045;-65
2022/05/01 23:22:09;;;;;;;5.38;4.53;;;;;;;13.53;59.48;100411.09;10368954;28;19929;-65
2022/05/01 23:27:10;;;;;;;5.70;5.10;;;;;;;13.62;59.76;100434.31;10366868;28;20120;-67
2022/05/01 23:32:12;;;;;;;7.20;5.07;;;;;;;13.58;59.78;100438.25;10381149;28;20069;-64
2022/05/01 23:37:13;;;;;;;6.25;4.93;;;;;;;13.58;59.81;100427.53;10369561;28;21105;-67
2022/05/01 23:42:15;;;;;;;6.43;4.75;;;;;;;13.47;59.99;100425.84;10365973;28;20055;-66
2022/05/01 23:47:16;;;;;;;6.32;5.07;;;;;;;13.51;60.17;100426.41;10366261;28;20522;-65
2022/05/01 23:52:18;;;;;;;6.18;5.03;;;;;;;13.46;59.72;100417.97;10372178;28;20051;-66
2022/05/01 23:57:19;;;;;;;6.00;5.03;;;;;;;13.38;60.39;100419.50;10373685;28;20132;-65
